Time;durP1;ratioP1;P1;durP2;ratioP2;P2;SDS_P1;SDS_P2;PMS_P1;PMS_P2;Temp;Humidity;BMP_temperature;BMP_pressure;BME280_temperature;BME280_humidity;BME280_pressure;Samples;Min_cycle;Max_cycle;Signal;HPM_P1;HPM_P2
2024/02/10 11:55:21;;;;;;;;;;;;;;;;;;4904204;29;19934;-89
2024/02/10 11:57:46;;;;;;;;;;;;;;;;;;4885830;29;19919;-88
2024/02/10 12:00:12;;;;;;;;;;;;;;;;;;4900985;29;19923;-88
2024/02/10 12:02:39;;;;;;;;;;;;;;;;;;4905160;29;19930;-96
2024/02/10 12:05:06;;;;;;;;;;;;;;;;;;4918862;29;19908;-93
2024/02/10 12:07:31;;;;;;;;;;;;;;;;;;4931115;29;19907;-96
2024/02/10 12:09:57;;;;;;;;;;;;;;;;;;4907303;29;19923;-93
2024/02/10 12:12:23;;;;;;;;;;;;;;;;;;4933056;29;19915;-89
2024/02/10 12:14:49;;;;;;;;;;;;;;;;;;4920218;29;19986;-92
2024/02/10 12:17:19;;;;;;;;;;;;;;;;;;4912765;29;19931;-91
2024/02/10 12:19:45;;;;;;;;;;;;;;;;;;4904752;29;19915;-96
2024/02/10 12:22:11;;;;;;;;;;;;;;;;;;4901980;29;19922;-95
2024/02/10 12:24:37;;;;;;;;;;;;;;;;;;4906982;29;20333;-95
2024/02/10 12:27:04;;;;;;;;;;;;;;;;;;4912167;29;19915;-90
2024/02/10 12:29:29;;;;;;;;;;;;;;;;;;4925340;29;19924;-87
2024/02/10 12:32:01;;;;;;;;;;;;;;;;;;4938738;29;19920;-87
2024/02/10 12:34:36;;;;;;;;;;;;;;;;;;4923869;29;19926;-88
2024/02/10 12:37:02;;;;;;;;;;;;;;;;;;4920554;29;19915;-93
2024/02/10 12:39:32;;;;;;;;;;;;;;;;;;4922769;29;19911;-95
2024/02/10 12:42:03;;;;;;;;;;;;;;;;;;4941677;23;19906;-90
2024/02/10 12:44:41;;;;;;;;;;;;;;;;;;4964106;29;19970;-87
2024/02/10 12:47:08;;;;;;;;;;;;;;;;;;4955473;29;19930;-91
2024/02/10 12:49:34;;;;;;;;;;;;;;;;;;4958490;29;19918;-88
2024/02/10 12:52:00;;;;;;;;;;;;;;;;;;4956808;29;20013;-88
2024/02/10 12:54:27;;;;;;;;;;;;;;;;;;4942221;29;19914;-86
2024/02/10 12:56:53;;;;;;;;;;;;;;;;;;4939579;29;19914;-87
2024/02/10 12:59:19;;;;;;;;;;;;;;;;;;4956809;29;19978;-91
2024/02/10 13:01:44;;;;;;;;;;;;;;;;;;4954748;29;19969;-87
2024/02/10 13:04:09;;;;;;;;;;;;;;;;;;4941945;29;19914;-91
2024/02/10 13:06:36;;;;;;;;;;;;;;;;;;4921660;29;20280;-88
2024/02/10 13:09:02;;;;;;;;;;;;;;;;;;4939131;29;19954;-87
2024/02/10 13:11:28;;;;;;;;;;;;;;;;;;4958455;29;19911;-88
2024/02/10 13:13:55;;;;;;;;;;;;;;;;;;4959753;29;19914;-88
2024/02/10 13:16:20;;;;;;;;;;;;;;;;;;4945878;29;19914;-88
2024/02/10 13:18:46;;;;;;;;;;;;;;;;;;4959683;29;19979;-89
2024/02/10 13:21:16;;;;;;;;;;;;;;;;;;4961125;29;19930;-90
2024/02/10 13:23:43;;;;;;;;;;;;;;;;;;4957520;29;19918;-90
2024/02/10 13:26:08;;;;;;;;;;;;;;;;;;4957449;29;19926;-89
2024/02/10 13:28:33;;;;;;;;;;;;;;;;;;4959061;29;20372;-89
2024/02/10 13:30:59;;;;;;;;;;;;;;;;;;4957190;29;20341;-89
2024/02/10 13:33:24;;;;;;;;;;;;;;;;;;4958426;29;20321;-90
2024/02/10 13:35:55;;;;;;;;;;;;;;;;;;4958080;28;20399;-89
2024/02/10 14:00:34;;;;;;;;;;;;;;;;;;4939629;29;19978;-91
2024/02/10 14:05:41;;;;;;;;;;;;;;;;;;4939092;29;20005;-91
2024/02/10 14:10:57;;;;;;;;;;;;;;;;;;4938835;29;19915;-89
2024/02/10 14:13:23;;;;;;;;;;;;;;;;;;4939549;29;19915;-91
2024/02/10 14:15:56;;;;;;;;;;;;;;;;;;4921631;29;19926;-90
2024/02/10 14:18:32;;;;;;;;;;;;;;;;;;4921351;29;19926;-89
2024/02/10 14:21:03;;;;;;;;;;;;;;;;;;4921736;29;19919;-89
2024/02/10 14:23:28;;;;;;;;;;;;;;;;;;4921032;29;19919;-89
2024/02/10 14:25:56;;;;;;;;;;;;;;;;;;4920739;29;20340;-90
2024/02/10 14:28:38;;;;;;;;;;;;;;;;;;4937815;29;19946;-89
2024/02/10 14:31:05;;;;;;;;;;;;;;;;;;4920973;29;19911;-91
2024/02/10 14:33:33;;;;;;;;;;;;;;;;;;4921025;29;19915;-89
2024/02/10 14:36:08;;;;;;;;;;;;;;;;;;4920863;29;19915;-89
2024/02/10 14:38:48;;;;;;;;;;;;;;;;;;4920833;29;19915;-88
2024/02/10 14:41:14;;;;;;;;;;;;;;;;;;4937738;29;19911;-89
2024/02/10 14:43:39;;;;;;;;;;;;;;;;;;4935961;29;20010;-89
2024/02/10 14:46:14;;;;;;;;;;;;;;;;;;4957008;29;19918;-89
2024/02/10 14:48:41;;;;;;;;;;;;;;;;;;4956902;29;19970;-89
2024/02/10 14:51:10;;;;;;;;;;;;;;;;;;4940287;29;19965;-89
2024/02/10 14:53:37;;;;;;;;;;;;;;;;;;4939700;29;19915;-90
2024/02/10 14:56:04;;;;;;;;;;;;;;;;;;4939701;29;19930;-88
2024/02/10 14:58:30;;;;;;;;;;;;;;;;;;4956868;29;19914;-91
2024/02/10 15:00:55;;;;;;;;;;;;;;;;;;4939435;29;20017;-92
2024/02/10 15:03:21;;;;;;;;;;;;;;;;;;4940126;29;19941;-92
2024/02/10 15:05:48;;;;;;;;;;;;;;;;;;4940225;29;19969;-91
2024/02/10 15:08:14;;;;;;;;;;;;;;;;;;4940202;29;19915;-93
2024/02/10 15:10:39;;;;;;;;;;;;;;;;;;4941190;29;19910;-94
2024/02/10 15:13:05;;;;;;;;;;;;;;;;;;4940857;29;19914;-93
2024/02/10 15:15:31;;;;;;;;;;;;;;;;;;4941853;29;19911;-95
2024/02/10 15:18:00;;;;;;;;;;;;;;;;;;4961294;29;20280;-91
2024/02/10 15:20:26;;;;;;;;;;;;;;;;;;4951078;29;19936;-94
2024/02/10 15:22:52;;;;;;;;;;;;;;;;;;4942167;29;19919;-93
2024/02/10 15:25:18;;;;;;;;;;;;;;;;;;4940134;29;20013;-92
2024/02/10 15:27:44;;;;;;;;;;;;;;;;;;4940407;29;19977;-92
2024/02/10 15:30:10;;;;;;;;;;;;;;;;;;4942624;29;19914;-91
2024/02/10 15:32:36;;;;;;;;;;;;;;;;;;4957425;29;20009;-91
2024/02/10 15:35:05;;;;;;;;;;;;;;;;;;4939666;29;20004;-89
2024/02/10 15:37:31;;;;;;;;;;;;;;;;;;4938518;29;19969;-88
2024/02/10 15:39:57;;;;;;;;;;;;;;;;;;4938909;29;20254;-89
2024/02/10 15:42:22;;;;;;;;;;;;;;;;;;4938796;29;20017;-89
2024/02/10 15:44:47;;;;;;;;;;;;;;;;;;4956456;29;19918;-89
2024/02/10 15:47:13;;;;;;;;;;;;;;;;;;4956330;29;19915;-88
2024/02/10 15:49:41;;;;;;;;;;;;;;;;;;4958483;29;20361;-89
2024/02/10 15:52:09;;;;;;;;;;;;;;;;;;4939713;29;19937;-89
2024/02/10 15:54:34;;;;;;;;;;;;;;;;;;4939137;29;19921;-88
2024/02/10 15:56:59;;;;;;;;;;;;;;;;;;4939288;29;19915;-89
2024/02/10 15:59:25;;;;;;;;;;;;;;;;;;4958664;28;19922;-89
2024/02/10 16:01:51;;;;;;;;;;;;;;;;;;4959843;29;19915;-88
2024/02/10 16:04:16;;;;;;;;;;;;;;;;;;4942804;29;19914;-88
2024/02/10 16:06:46;;;;;;;;;;;;;;;;;;4959655;29;19914;-91
2024/02/10 16:09:12;;;;;;;;;;;;;;;;;;4942434;29;19914;-87
2024/02/10 16:11:37;;;;;;;;;;;;;;;;;;4942366;29;19965;-89
2024/02/10 16:14:02;;;;;;;;;;;;;;;;;;4942736;29;19914;-89
2024/02/10 16:16:29;;;;;;;;;;;;;;;;;;4942619;29;19918;-88
2024/02/10 16:18:57;;;;;;;;;;;;;;;;;;4942463;29;20372;-91
2024/02/10 16:21:29;;;;;;;;;;;;;;;;;;4942490;29;20001;-89
2024/02/10 16:23:59;;;;;;;;;;;;;;;;;;4927888;29;20269;-91
2024/02/10 16:26:25;;;;;;;;;;;;;;;;;;4942479;29;20384;-89
2024/02/10 16:28:50;;;;;;;;;;;;;;;;;;4942631;29;19915;-90
2024/02/10 16:31:18;;;;;;;;;;;;;;;;;;4942570;29;19985;-91
2024/02/10 16:33:46;;;;;;;;;;;;;;;;;;4942830;29;20012;-91
2024/02/10 16:36:15;;;;;;;;;;;;;;;;;;4960193;29;19921;-91
2024/02/10 16:38:41;;;;;;;;;;;;;;;;;;4942546;29;20313;-90
2024/02/10 16:41:06;;;;;;;;;;;;;;;;;;4959367;29;19914;-91
2024/02/10 16:43:31;;;;;;;;;;;;;;;;;;4942098;29;19973;-93
2024/02/10 16:45:57;;;;;;;;;;;;;;;;;;4942693;29;19970;-91
2024/02/10 16:48:22;;;;;;;;;;;;;;;;;;4941949;29;19937;-91
2024/02/10 16:50:47;;;;;;;;;;;;;;;;;;4942354;29;19915;-92
2024/02/10 16:53:13;;;;;;;;;;;;;;;;;;4942062;29;19918;-90
2024/02/10 16:55:41;;;;;;;;;;;;;;;;;;4942034;29;19965;-91
2024/02/10 16:58:10;;;;;;;;;;;;;;;;;;4942205;29;19914;-91
2024/02/10 17:00:37;;;;;;;;;;;;;;;;;;4942105;29;19966;-91
2024/02/10 17:03:04;;;;;;;;;;;;;;;;;;4941399;29;19915;-89
2024/02/10 17:05:35;;;;;;;;;;;;;;;;;;4941641;29;19914;-92
2024/02/10 17:08:04;;;;;;;;;;;;;;;;;;4959091;29;19991;-91
2024/02/10 17:10:34;;;;;;;;;;;;;;;;;;4941171;29;20292;-95
2024/02/10 17:13:07;;;;;;;;;;;;;;;;;;4941773;29;20295;-95
2024/02/10 17:15:32;;;;;;;;;;;;;;;;;;4941519;29;19914;-90
2024/02/10 17:17:58;;;;;;;;;;;;;;;;;;4958658;29;20057;-90
2024/02/10 17:20:24;;;;;;;;;;;;;;;;;;4941312;29;19922;-92
2024/02/10 17:22:53;;;;;;;;;;;;;;;;;;4941416;29;19915;-91
2024/02/10 17:25:20;;;;;;;;;;;;;;;;;;4941570;29;19921;-92
2024/02/10 17:27:46;;;;;;;;;;;;;;;;;;4941706;29;19949;-90
2024/02/10 17:30:12;;;;;;;;;;;;;;;;;;4941442;29;19923;-89
2024/02/10 17:32:37;;;;;;;;;;;;;;;;;;4941747;29;19919;-92
2024/02/10 17:35:03;;;;;;;;;;;;;;;;;;4941400;29;19914;-92
2024/02/10 17:37:28;;;;;;;;;;;;;;;;;;4941392;29;19926;-90
2024/02/10 17:39:54;;;;;;;;;;;;;;;;;;4958371;29;19953;-92
2024/02/10 17:42:19;;;;;;;;;;;;;;;;;;4937875;29;19918;-92
2024/02/10 17:44:48;;;;;;;;;;;;;;;;;;4937584;29;19914;-90
2024/02/10 17:47:17;;;;;;;;;;;;;;;;;;4937603;29;19914;-91
2024/02/10 17:49:44;;;;;;;;;;;;;;;;;;4938798;29;19914;-90
2024/02/10 17:52:12;;;;;;;;;;;;;;;;;;4940560;29;19915;-89
2024/02/10 17:54:38;;;;;;;;;;;;;;;;;;4937526;29;19922;-91
2024/02/10 17:57:07;;;;;;;;;;;;;;;;;;4937342;29;19915;-89
2024/02/10 17:59:32;;;;;;;;;;;;;;;;;;4938426;29;19978;-88
2024/02/10 18:01:58;;;;;;;;;;;;;;;;;;4939577;29;20095;-91
2024/02/10 18:04:23;;;;;;;;;;;;;;;;;;4937535;29;19918;-88
2024/02/10 18:06:48;;;;;;;;;;;;;;;;;;4937369;29;19922;-91
2024/02/10 18:09:14;;;;;;;;;;;;;;;;;;4938743;29;20444;-90
2024/02/10 18:11:39;;;;;;;;;;;;;;;;;;4938512;29;20366;-90
2024/02/10 18:14:04;;;;;;;;;;;;;;;;;;4937244;29;20013;-90
2024/02/10 18:16:30;;;;;;;;;;;;;;;;;;4938393;29;19911;-91
2024/02/10 18:18:55;;;;;;;;;;;;;;;;;;4937364;29;19957;-90
2024/02/10 18:21:22;;;;;;;;;;;;;;;;;;4938305;29;19915;-90
2024/02/10 18:23:47;;;;;;;;;;;;;;;;;;4938545;29;20336;-92
2024/02/10 18:26:13;;;;;;;;;;;;;;;;;;4937465;29;20006;-92
2024/02/10 18:28:38;;;;;;;;;;;;;;;;;;4938344;29;19946;-93
2024/02/10 18:31:05;;;;;;;;;;;;;;;;;;4938172;29;20013;-92
2024/02/10 18:33:30;;;;;;;;;;;;;;;;;;4938098;29;19922;-95
2024/02/10 18:35:58;;;;;;;;;;;;;;;;;;4938854;29;19915;-91
2024/02/10 18:38:24;;;;;;;;;;;;;;;;;;4940327;29;19915;-93
2024/02/10 18:40:55;;;;;;;;;;;;;;;;;;4944800;29;19918;-95
2024/02/10 18:43:31;;;;;;;;;;;;;;;;;;5081670;27;2093700;-94
2024/02/10 18:45:58;;;;;;;4.70;3.72;;;;;;;;;;5137694;27;19915;-92
2024/02/10 18:48:50;;;;;;;4.57;2.90;;;;;;;;;;5139945;27;20023;-95
2024/02/10 18:51:17;;;;;;;5.00;4.20;;;;;;;;;;5139758;27;20080;-96
2024/02/10 18:53:47;;;;;;;4.93;4.43;;;;;;;;;;5135754;27;20043;-94
2024/02/10 18:56:23;;;;;;;4.47;4.10;;;;;;;;;;5137006;27;20064;-96
2024/02/10 18:58:52;;;;;;;4.40;3.90;;;;;;;;;;5136414;27;20023;-93
2024/02/10 19:01:18;;;;;;;4.88;4.00;;;;;;;;;;5134646;27;20026;-93
2024/02/10 19:03:47;;;;;;;4.70;4.20;;;;;;;;;;5132580;27;20038;-95
2024/02/10 19:06:13;;;;;;;4.38;3.95;;;;;;;;;;5123674;27;20031;-94
2024/02/10 19:08:38;;;;;;;4.68;3.97;;;;;;;;;;5115494;28;20023;-91
2024/02/10 19:11:04;;;;;;;4.22;3.83;;;;;;;;;;5120776;28;20024;-96
2024/02/10 19:13:30;;;;;;;3.75;3.30;;;;;;;;;;5122377;28;20134;-95
2024/02/10 19:15:55;;;;;;;5.80;4.07;;;;;;;;;;5120499;28;20068;-95
2024/02/10 19:18:21;;;;;;;4.93;3.95;;;;;;;;;;5116597;28;20024;-94
2024/02/10 19:20:47;;;;;;;3.88;3.15;;;;;;;;;;5115566;28;20028;-94
2024/02/10 19:23:12;;;;;;;4.28;3.28;;;;;;;;;;5116886;28;20029;-94
2024/02/10 19:25:40;;;;;;;8.25;6.07;;;;;;;;;;5117160;28;20032;-95
2024/02/10 19:28:09;;;;;;;5.07;4.00;;;;;;;;;;5117572;28;20057;-94
2024/02/10 19:30:37;;;;;;;7.60;4.90;;;;;;;;;;5115596;28;20075;-94
2024/02/10 19:33:05;;;;;;;3.88;3.40;;;;;;;;;;5115238;28;20023;-94
2024/02/10 19:35:32;;;;;;;4.13;3.72;;;;;;;;;;5115556;28;20023;-94
2024/02/10 19:37:57;;;;;;;4.95;3.78;;;;;;;;;;5116134;28;20020;-93
2024/02/10 19:40:23;;;;;;;4.95;4.03;;;;;;;;;;5117290;28;20042;-93
2024/02/10 19:42:49;;;;;;;4.60;4.13;;;;;;;;;;5120959;28;20061;-93
2024/02/10 19:45:15;;;;;;;3.80;3.50;;;;;;;;;;5116382;28;20484;-94
2024/02/10 19:47:41;;;;;;;4.07;2.95;;;;;;;;;;5117509;28;20438;-93
2024/02/10 19:50:08;;;;;;;6.10;3.33;;;;;;;;;;5118705;28;20377;-95
2024/02/10 19:52:34;;;;;;;4.90;4.40;;;;;;;;;;5136977;28;20028;-95
2024/02/10 19:55:00;;;;;;;5.97;4.93;;;;;;;;;;5093352;28;20501;-94
2024/02/10 19:57:29;;;;;;;2.80;2.28;;;;;;;;;;5115852;28;20032;-93
2024/02/10 19:59:59;;;;;;;5.28;4.78;;;;;;;;;;5096462;28;20457;-96
2024/02/10 20:02:33;;;;;;;3.33;3.03;;;;;;;;;;5135242;28;20054;-94
2024/02/10 20:04:59;;;;;;;3.25;2.95;;;;;;;;;;5134752;28;20079;-93
2024/02/10 20:07:26;;;;;;;6.15;3.70;;;;;;;;;;5115046;28;20043;-92
2024/02/10 20:09:52;;;;;;;3.40;2.95;;;;;;;;;;5120597;28;20027;-91
2024/02/10 20:12:17;;;;;;;4.80;3.80;;;;;;;;;;5114465;28;20030;-92
2024/02/10 20:14:44;;;;;;;3.65;3.33;;;;;;;;;;5110782;28;20028;-96
2024/02/10 20:17:11;;;;;;;3.55;3.22;;;;;;;;;;5112132;28;20049;-93
2024/02/10 20:19:43;;;;;;;3.80;3.20;;;;;;;;;;5122894;27;20027;-96
2024/02/10 20:22:09;;;;;;;3.67;2.75;;;;;;;;;;5120168;27;20034;-94
2024/02/10 20:24:37;;;;;;;5.88;3.53;;;;;;;;;;5120926;27;20113;-94
2024/02/10 20:27:08;;;;;;;3.80;3.50;;;;;;;;;;5120904;27;20030;-94
2024/02/10 20:29:36;;;;;;;5.40;3.40;;;;;;;;;;5120757;27;20078;-94
2024/02/10 20:32:05;;;;;;;6.07;3.50;;;;;;;;;;5121642;27;20031;-94
2024/02/10 20:34:31;;;;;;;3.80;3.38;;;;;;;;;;5122378;27;20248;-93
2024/02/10 20:36:57;;;;;;;4.97;3.85;;;;;;;;;;5120782;27;20027;-95
2024/02/10 20:39:28;;;;;;;3.38;3.03;;;;;;;;;;5119592;27;20114;-92
2024/02/10 20:41:57;;;;;;;3.33;3.03;;;;;;;;;;5120516;27;20158;-92
2024/02/10 20:44:26;;;;;;;;;;;;;;;;;;5127353;27;20027;-96
2024/02/10 20:46:56;;;;;;;3.35;2.63;;;;;;;;;;5125595;27;19918;-96
2024/02/10 20:49:22;;;;;;;4.55;2.95;;;;;;;;;;5122448;27;20019;-92
2024/02/10 20:51:48;;;;;;;3.83;3.53;;;;;;;;;;5125267;28;20028;-93
2024/02/10 20:54:17;;;;;;;3.95;3.10;;;;;;;;;;5114179;27;20026;-91
2024/02/10 20:56:49;;;;;;;3.67;2.97;;;;;;;;;;5120518;27;20025;-95
2024/02/10 20:59:17;;;;;;;4.57;3.60;;;;;;;;;;5124282;27;20106;-91
2024/02/10 21:01:43;;;;;;;4.90;3.20;;;;;;;;;;5133336;27;20007;-96
2024/02/10 21:04:12;;;;;;;3.17;2.88;;;;;;;;;;5130994;27;20047;-94
2024/02/10 21:06:43;;;;;;;4.05;3.20;;;;;;;;;;5140368;27;20058;-91
2024/02/10 21:09:14;;;;;;;4.22;3.60;;;;;;;;;;5127605;27;20015;-92
2024/02/10 21:11:40;;;;;;;4.25;3.80;;;;;;;;;;5119028;27;20035;-91
2024/02/10 21:14:12;;;;;;;5.28;4.78;;;;;;;;;;5133255;27;20015;-92
2024/02/10 21:16:44;;;;;;;5.22;3.90;;;;;;;;;;5129569;27;20037;-92
2024/02/10 21:19:25;;;;;;;11.73;7.90;;;;;;;;;;5150904;27;20019;-95
2024/02/10 21:21:51;;;;;;;4.45;3.63;;;;;;;;;;5131288;27;20079;-91
2024/02/10 21:24:21;;;;;;;3.85;2.85;;;;;;;;;;5136790;27;20023;-96
2024/02/10 21:26:48;;;;;;;3.65;3.35;;;;;;;;;;5136741;27;20027;-95
2024/02/10 21:29:16;;;;;;;7.63;4.35;;;;;;;;;;5149109;27;20027;-96
2024/02/10 21:31:44;;;;;;;6.72;5.63;;;;;;;;;;5120685;27;20027;-95
2024/02/10 21:34:11;;;;;;;4.50;4.10;;;;;;;;;;5121650;27;20038;-94
2024/02/10 21:36:37;;;;;;;6.25;5.18;;;;;;;;;;5145104;27;20060;-95
2024/02/10 21:39:26;;;;;;;5.40;4.90;;;;;;;;;;5130110;27;20023;-96
2024/02/10 21:41:52;;;;;;;5.10;4.07;;;;;;;;;;5106313;28;20067;-90
2024/02/10 21:44:22;;;;;;;5.05;3.83;;;;;;;;;;5118620;28;20031;-96
2024/02/10 21:46:50;;;;;;;5.85;4.40;;;;;;;;;;5136123;28;20030;-96
2024/02/10 21:49:38;;;;;;;31.50;20.65;;;;;;;;;;5128742;28;20023;-95
2024/02/10 21:52:24;;;;;;;27.38;15.65;;;;;;;;;;5136622;28;20030;-96
2024/02/10 21:54:58;;;;;;;12.13;7.57;;;;;;;;;;5118999;28;20050;-95
2024/02/10 21:57:45;;;;;;;17.17;9.45;;;;;;;;;;5131413;28;20494;-91
2024/02/10 22:00:19;;;;;;;18.27;9.95;;;;;;;;;;5133805;28;20091;-96
2024/02/10 22:02:49;;;;;;;13.02;5.95;;;;;;;;;;5118702;28;20016;-95
2024/02/10 22:05:35;;;;;;;5.55;4.05;;;;;;;;;;5135632;28;20023;-96
2024/02/10 22:08:04;;;;;;;8.27;6.22;;;;;;;;;;5135466;28;20015;-96
2024/02/10 22:10:46;;;;;;;21.02;11.32;;;;;;;;;;5129270;28;20106;-95
2024/02/10 22:13:12;;;;;;;20.20;12.70;;;;;;;;;;5133015;28;20023;-96
2024/02/10 22:15:39;;;;;;;8.98;5.82;;;;;;;;;;5135507;28;20000;-96
2024/02/10 22:18:09;;;;;;;4.05;3.20;;;;;;;;;;5111144;28;20055;-91
2024/02/10 22:20:35;;;;;;;7.97;7.18;;;;;;;;;;5128628;28;20028;-96
2024/02/10 22:23:00;;;;;;;3.00;2.70;;;;;;;;;;5059267;22;20052;-95
2024/02/10 22:25:26;;;;;;;3.35;2.60;;;;;;;;;;5045287;28;20050;-96
2024/02/10 22:27:52;;;;;;;3.30;3.00;;;;;;;;;;5048220;28;20080;-96
2024/02/10 22:30:21;;;;;;;13.23;3.58;;;;;;;;;;5049304;28;20080;-92
2024/02/10 22:32:51;;;;;;;;;;;;;;;;;;5055487;28;20014;-92
2024/02/10 22:35:18;;;;;;;3.40;3.05;;;;;;;;;;5039265;28;19913;-92
2024/02/10 22:37:45;;;;;;;2.75;2.40;;;;;;;;;;5052397;28;20468;-92
2024/02/10 22:40:16;;;;;;;2.30;2.13;;;;;;;;;;5026784;28;20030;-95
2024/02/10 22:42:45;;;;;;;2.45;2.28;;;;;;;;;;5046886;28;20025;-91
2024/02/10 22:45:14;;;;;;;2.15;1.92;;;;;;;;;;5029331;28;20049;-95
2024/02/10 22:47:44;;;;;;;3.53;3.17;;;;;;;;;;5046058;28;20093;-93
2024/02/10 22:50:12;;;;;;;3.17;1.90;;;;;;;;;;5038599;28;20032;-96
2024/02/10 22:52:53;;;;;;;4.22;1.92;;;;;;;;;;5054505;28;20030;-93
2024/02/10 22:55:19;;;;;;;3.85;3.38;;;;;;;;;;5029192;28;20117;-94
